Time;durP1;ratioP1;P1;durP2;ratioP2;P2;SDS_P1;SDS_P2;PMS_P1;PMS_P2;Temp;Humidity;BMP_temperature;BMP_pressure;BME280_temperature;BME280_humidity;BME280_pressure;Samples;Min_cycle;Max_cycle;Signal;HPM_P1;HPM_P2
2023/11/04 00:00:37;;;;;;;0.05;0.05;;;22.50;52.90;;;;;;5010060;28;20208;-55
2023/11/04 00:03:07;;;;;;;0.10;0.10;;;22.60;52.80;;;;;;5011110;28;20219;-55
2023/11/04 00:05:39;;;;;;;0.00;0.00;;;22.60;52.70;;;;;;5010371;28;20228;-54
2023/11/04 00:08:11;;;;;;;0.00;0.00;;;22.60;52.60;;;;;;5010568;28;20204;-54
2023/11/04 00:10:42;;;;;;;0.00;0.00;;;22.70;52.50;;;;;;5009940;28;20189;-55
2023/11/04 00:13:12;;;;;;;0.05;0.05;;;22.70;52.50;;;;;;5011186;28;20627;-50
2023/11/04 00:15:44;;;;;;;0.00;0.00;;;22.70;52.50;;;;;;5008587;28;20692;-54
2023/11/04 00:18:15;;;;;;;0.00;0.00;;;22.80;52.50;;;;;;5009757;28;20197;-56
2023/11/04 00:20:46;;;;;;;0.10;0.10;;;22.80;52.50;;;;;;5011147;28;20204;-55
2023/11/04 00:23:18;;;;;;;0.00;0.00;;;22.90;52.50;;;;;;5010963;28;20221;-53
2023/11/04 00:25:49;;;;;;;0.00;0.00;;;22.90;52.50;;;;;;5011009;28;20204;-53
2023/11/04 00:28:20;;;;;;;0.00;0.00;;;22.90;52.50;;;;;;5011370;28;20197;-52
2023/11/04 00:30:51;;;;;;;0.00;0.00;;;23.00;52.70;;;;;;5010681;28;20289;-54
2023/11/04 00:33:21;;;;;;;0.08;0.08;;;23.00;52.70;;;;;;5011221;28;20224;-53
2023/11/04 00:35:52;;;;;;;0.00;0.00;;;23.00;52.80;;;;;;5011049;28;20564;-53
2023/11/04 00:38:24;;;;;;;0.00;0.00;;;23.00;52.80;;;;;;5011147;28;20583;-54
2023/11/04 00:40:55;;;;;;;0.10;0.10;;;23.10;52.80;;;;;;5011056;28;20534;-52
2023/11/04 00:43:26;;;;;;;0.00;0.00;;;23.10;52.80;;;;;;5010848;28;20275;-54
2023/11/04 00:45:57;;;;;;;0.00;0.00;;;23.10;52.60;;;;;;5010419;28;20630;-51
2023/11/04 00:48:27;;;;;;;0.00;0.00;;;23.20;52.40;;;;;;5017196;28;20196;-53
2023/11/04 00:50:58;;;;;;;0.00;0.00;;;23.20;52.30;;;;;;5031665;28;20675;-54
2023/11/04 00:53:30;;;;;;;0.00;0.00;;;23.30;52.00;;;;;;5027620;28;20304;-53
2023/11/04 00:56:01;;;;;;;0.10;0.10;;;23.30;51.90;;;;;;5014665;28;20205;-53
2023/11/04 00:58:32;;;;;;;0.10;0.10;;;23.40;51.90;;;;;;5015056;28;20197;-56
2023/11/04 01:01:02;;;;;;;0.00;0.00;;;23.40;51.90;;;;;;5016248;28;20197;-53
2023/11/04 01:03:33;;;;;;;0.00;0.00;;;23.40;52.00;;;;;;5034025;28;20224;-52
2023/11/04 01:06:04;;;;;;;0.00;0.00;;;23.40;51.90;;;;;;5032104;28;20574;-54
2023/11/04 01:08:38;;;;;;;0.10;0.10;;;23.50;52.00;;;;;;5033487;28;20674;-56
2023/11/04 01:11:08;;;;;;;0.00;0.00;;;23.50;52.00;;;;;;5003054;28;20202;-51
2023/11/04 01:13:39;;;;;;;0.00;0.00;;;23.50;52.10;;;;;;4994327;28;20224;-55
2023/11/04 01:16:10;;;;;;;0.00;0.00;;;23.50;52.10;;;;;;4993582;28;20669;-52
2023/11/04 01:18:41;;;;;;;0.05;0.05;;;23.60;52.20;;;;;;4993955;28;20194;-53
2023/11/04 01:21:12;;;;;;;0.00;0.00;;;23.60;52.20;;;;;;5009174;28;20188;-52
2023/11/04 01:23:44;;;;;;;0.00;0.00;;;23.60;52.20;;;;;;5033022;28;20220;-55
2023/11/04 01:26:15;;;;;;;0.00;0.00;;;23.70;52.20;;;;;;5033521;28;20196;-56
2023/11/04 01:28:45;;;;;;;0.00;0.00;;;23.70;52.30;;;;;;5033728;28;20219;-50
2023/11/04 01:31:16;;;;;;;0.00;0.00;;;23.70;52.30;;;;;;5030119;28;20200;-53
2023/11/04 01:33:47;;;;;;;0.03;0.03;;;23.70;52.10;;;;;;5033738;28;20231;-53
2023/11/04 01:36:17;;;;;;;0.00;0.00;;;23.80;51.80;;;;;;5033409;28;20200;-54
2023/11/04 01:38:50;;;;;;;0.00;0.00;;;23.80;51.60;;;;;;5033074;28;20200;-56
2023/11/04 01:41:20;;;;;;;0.00;0.00;;;23.80;51.40;;;;;;5033042;28;20200;-55
2023/11/04 01:43:51;;;;;;;0.00;0.00;;;23.90;51.20;;;;;;5033144;28;20239;-53
2023/11/04 01:46:25;;;;;;;0.00;0.00;;;23.90;51.10;;;;;;5032688;28;20192;-53
2023/11/04 01:48:59;;;;;;;0.00;0.00;;;23.90;51.20;;;;;;5032905;28;20246;-53
2023/11/04 01:51:32;;;;;;;0.00;0.00;;;24.00;51.20;;;;;;5033015;28;20207;-55
2023/11/04 01:54:05;;;;;;;0.10;0.10;;;24.00;51.10;;;;;;5033253;28;20201;-54
2023/11/04 01:56:39;;;;;;;0.10;0.10;;;24.00;51.00;;;;;;5032997;28;20192;-56
2023/11/04 01:59:10;;;;;;;0.00;0.00;;;24.00;51.00;;;;;;5032548;28;20653;-53
2023/11/04 02:01:45;;;;;;;0.00;0.00;;;24.10;51.20;;;;;;5013771;28;20284;-54
2023/11/04 02:04:16;;;;;;;0.00;0.00;;;24.10;51.30;;;;;;5012461;28;20224;-53
2023/11/04 02:06:48;;;;;;;0.00;0.00;;;24.10;51.40;;;;;;5013106;28;20201;-50
2023/11/04 02:09:22;;;;;;;0.10;0.10;;;24.20;51.40;;;;;;5013457;28;20247;-55
2023/11/04 02:11:53;;;;;;;0.00;0.00;;;24.20;51.50;;;;;;5012984;28;20217;-51
2023/11/04 02:14:24;;;;;;;0.00;0.00;;;24.20;51.50;;;;;;5012356;28;20649;-53
2023/11/04 02:16:54;;;;;;;0.00;0.00;;;24.20;51.20;;;;;;5012326;28;20204;-54
2023/11/04 02:19:26;;;;;;;0.00;0.00;;;24.30;50.90;;;;;;5012492;28;20201;-52
2023/11/04 02:21:58;;;;;;;0.00;0.00;;;24.30;50.70;;;;;;5012825;28;20245;-50
2023/11/04 02:24:29;;;;;;;0.00;0.00;;;24.30;50.50;;;;;;5012944;28;20224;-55
2023/11/04 02:27:03;;;;;;;0.00;0.00;;;24.30;50.40;;;;;;5012616;28;20193;-50
2023/11/04 02:29:33;;;;;;;0.00;0.00;;;24.40;50.30;;;;;;5012234;28;20196;-52
2023/11/04 02:32:04;;;;;;;0.00;0.00;;;24.40;50.10;;;;;;5012512;28;20227;-55
2023/11/04 02:34:35;;;;;;;0.00;0.00;;;24.40;50.00;;;;;;5012276;28;20204;-55
2023/11/04 02:37:07;;;;;;;0.00;0.00;;;24.50;50.00;;;;;;5012861;28;20197;-55
2023/11/04 02:39:38;;;;;;;0.00;0.00;;;24.50;49.90;;;;;;5012591;28;20232;-52
2023/11/04 02:42:09;;;;;;;0.00;0.00;;;24.50;50.10;;;;;;5020572;28;20212;-56
2023/11/04 02:44:39;;;;;;;0.00;0.00;;;24.50;50.00;;;;;;5031904;28;20231;-48
2023/11/04 02:47:10;;;;;;;0.00;0.00;;;24.60;50.00;;;;;;5032054;28;20200;-47
2023/11/04 02:49:41;;;;;;;0.00;0.00;;;24.60;50.00;;;;;;5031939;28;20196;-48
2023/11/04 02:52:13;;;;;;;0.00;0.00;;;24.60;49.90;;;;;;5029799;28;20227;-47
2023/11/04 02:54:44;;;;;;;0.10;0.10;;;24.60;50.00;;;;;;5031878;28;20196;-50
2023/11/04 02:57:14;;;;;;;0.00;0.00;;;24.70;50.00;;;;;;5031865;28;20208;-48
2023/11/04 02:59:45;;;;;;;0.00;0.00;;;24.70;49.90;;;;;;5028511;28;20628;-49
2023/11/04 03:02:16;;;;;;;0.10;0.10;;;24.70;49.90;;;;;;5011842;28;20217;-49
2023/11/04 03:04:46;;;;;;;0.00;0.00;;;24.70;50.00;;;;;;5011796;28;20316;-50
2023/11/04 03:07:19;;;;;;;0.00;0.00;;;24.70;49.60;;;;;;5021430;28;20197;-48
2023/11/04 03:09:50;;;;;;;0.00;0.00;;;24.70;49.40;;;;;;5012098;28;20684;-47
2023/11/04 03:12:20;;;;;;;0.00;0.00;;;24.80;49.30;;;;;;5011666;28;20602;-49
2023/11/04 03:14:51;;;;;;;0.00;0.00;;;24.80;49.10;;;;;;5010544;28;20204;-55
2023/11/04 03:17:22;;;;;;;0.00;0.00;;;24.80;49.00;;;;;;5005751;28;20190;-52
2023/11/04 03:19:52;;;;;;;0.00;0.00;;;24.80;48.80;;;;;;4991659;28;20285;-51
2023/11/04 03:22:25;;;;;;;0.10;0.10;;;24.90;48.70;;;;;;5022030;28;20222;-48
2023/11/04 03:24:55;;;;;;;0.00;0.00;;;24.90;48.70;;;;;;5031568;28;20227;-50
2023/11/04 03:27:26;;;;;;;0.00;0.00;;;24.90;48.60;;;;;;5031330;28;20192;-47
2023/11/04 03:29:57;;;;;;;0.00;0.00;;;24.90;48.50;;;;;;5027360;28;20602;-50
2023/11/04 03:32:28;;;;;;;0.00;0.00;;;24.90;48.50;;;;;;5011780;28;20228;-50
2023/11/04 03:34:58;;;;;;;0.00;0.00;;;25.00;48.60;;;;;;5014947;28;20279;-56
2023/11/04 03:37:31;;;;;;;0.00;0.00;;;25.00;48.50;;;;;;5031049;28;20671;-50
2023/11/04 03:40:02;;;;;;;0.00;0.00;;;25.00;48.50;;;;;;5030759;28;20196;-49
2023/11/04 03:42:36;;;;;;;0.00;0.00;;;25.00;48.60;;;;;;5031005;28;20215;-48
2023/11/04 03:45:08;;;;;;;0.00;0.00;;;25.10;48.70;;;;;;5031511;28;20241;-54
2023/11/04 03:47:39;;;;;;;0.00;0.00;;;25.10;48.70;;;;;;5031074;28;20680;-51
2023/11/04 03:50:10;;;;;;;0.00;0.00;;;25.10;48.80;;;;;;5030118;28;20250;-47
2023/11/04 03:52:42;;;;;;;0.00;0.00;;;25.10;48.60;;;;;;5030768;28;20224;-57
2023/11/04 03:55:13;;;;;;;0.00;0.00;;;25.10;48.40;;;;;;5030614;28;20200;-46
2023/11/04 03:57:43;;;;;;;0.00;0.00;;;25.10;48.10;;;;;;5031124;28;20199;-46
2023/11/04 04:00:15;;;;;;;0.00;0.00;;;25.10;47.90;;;;;;5024968;28;20212;-47
2023/11/04 04:02:45;;;;;;;0.00;0.00;;;25.10;47.70;;;;;;5011092;28;20221;-49
2023/11/04 04:05:16;;;;;;;0.00;0.00;;;25.20;47.70;;;;;;5010856;28;20463;-47
2023/11/04 04:07:49;;;;;;;0.00;0.00;;;25.20;47.70;;;;;;5011046;28;20204;-47
2023/11/04 04:10:20;;;;;;;0.00;0.00;;;25.20;47.50;;;;;;5010528;28;20201;-46
2023/11/04 04:12:51;;;;;;;0.00;0.00;;;25.20;48.10;;;;;;5011119;28;20221;-49
2023/11/04 04:15:22;;;;;;;0.00;0.00;;;25.20;47.50;;;;;;5011443;28;20289;-51
2023/11/04 04:17:53;;;;;;;0.00;0.00;;;25.20;47.40;;;;;;5011407;28;20197;-54
2023/11/04 04:20:24;;;;;;;0.00;0.00;;;25.30;47.40;;;;;;5011250;28;20196;-45
2023/11/04 04:22:57;;;;;;;0.00;0.00;;;25.30;47.30;;;;;;5010730;28;20775;-47
2023/11/04 04:25:27;;;;;;;0.00;0.00;;;25.30;47.30;;;;;;5011026;28;20232;-49
2023/11/04 04:27:58;;;;;;;0.00;0.00;;;25.30;47.40;;;;;;5014684;28;20204;-48
2023/11/04 04:30:29;;;;;;;0.00;0.00;;;25.40;47.60;;;;;;5014390;28;20243;-53
2023/11/04 04:32:59;;;;;;;0.00;0.00;;;25.40;47.60;;;;;;5014340;28;20236;-46
2023/11/04 04:35:30;;;;;;;0.00;0.00;;;25.40;47.70;;;;;;5014264;28;20197;-48
2023/11/04 04:38:03;;;;;;;0.00;0.00;;;25.40;47.80;;;;;;5026463;28;20283;-53
2023/11/04 04:40:33;;;;;;;0.00;0.00;;;25.50;47.80;;;;;;5034747;28;20196;-53
2023/11/04 04:43:04;;;;;;;0.00;0.00;;;25.40;47.90;;;;;;5034129;28;20282;-51
2023/11/04 04:45:34;;;;;;;0.00;0.00;;;25.50;47.90;;;;;;5033944;28;20227;-53
2023/11/04 04:48:05;;;;;;;0.00;0.00;;;25.50;47.80;;;;;;5034100;28;20279;-49
2023/11/04 04:50:36;;;;;;;0.00;0.00;;;25.50;47.80;;;;;;5034268;28;20200;-47
2023/11/04 04:53:09;;;;;;;0.00;0.00;;;25.50;47.70;;;;;;5034212;28;20952;-49
2023/11/04 04:55:40;;;;;;;0.00;0.00;;;25.50;47.60;;;;;;5030471;28;20632;-49
2023/11/04 04:58:11;;;;;;;0.00;0.00;;;25.50;47.60;;;;;;5030197;28;20189;-46
2023/11/04 05:00:42;;;;;;;0.00;0.00;;;25.50;47.50;;;;;;5014007;28;20243;-47
2023/11/04 05:03:12;;;;;;;0.00;0.00;;;25.50;47.40;;;;;;5013992;28;20220;-47
2023/11/04 05:05:43;;;;;;;0.00;0.00;;;25.40;47.30;;;;;;5014345;28;20228;-46
2023/11/04 05:08:15;;;;;;;0.00;0.00;;;25.50;47.40;;;;;;5014217;28;20211;-49
2023/11/04 05:10:46;;;;;;;0.00;0.00;;;25.50;47.40;;;;;;5013881;28;20201;-48
2023/11/04 05:13:18;;;;;;;0.00;0.00;;;25.50;47.40;;;;;;5015487;28;20227;-48
2023/11/04 05:15:48;;;;;;;0.00;0.00;;;25.50;47.40;;;;;;5033451;28;20204;-46
2023/11/04 05:18:19;;;;;;;0.00;0.00;;;25.50;47.30;;;;;;5033482;28;20204;-46
2023/11/04 05:20:50;;;;;;;0.00;0.00;;;25.40;47.80;;;;;;5033717;28;20760;-49
2023/11/04 05:23:22;;;;;;;0.00;0.00;;;25.40;47.10;;;;;;5033845;28;20227;-51
2023/11/04 05:25:53;;;;;;;0.00;0.00;;;25.40;47.80;;;;;;5033701;28;20228;-49
2023/11/04 05:28:24;;;;;;;0.00;0.00;;;25.40;47.20;;;;;;5033314;28;20192;-51
2023/11/04 05:30:55;;;;;;;0.00;0.00;;;25.40;47.20;;;;;;5021108;28;20566;-52
2023/11/04 05:33:26;;;;;;;0.00;0.00;;;25.40;47.10;;;;;;5019740;28;20297;-52
2023/11/04 05:35:56;;;;;;;0.00;0.00;;;25.40;47.10;;;;;;5033687;28;20338;-53
2023/11/04 05:38:29;;;;;;;0.00;0.00;;;25.40;47.30;;;;;;5032694;28;20254;-54
2023/11/04 05:41:00;;;;;;;0.00;0.00;;;25.40;47.10;;;;;;5033584;28;20576;-55
2023/11/04 05:43:31;;;;;;;0.00;0.00;;;25.40;47.10;;;;;;5033384;28;20217;-51
2023/11/04 05:46:03;;;;;;;0.00;0.00;;;25.40;47.10;;;;;;5033335;28;20232;-53
2023/11/04 05:48:35;;;;;;;0.00;0.00;;;25.40;47.00;;;;;;5032514;28;20287;-48
2023/11/04 05:51:06;;;;;;;0.00;0.00;;;25.40;46.80;;;;;;5032942;28;20219;-49
2023/11/04 05:53:39;;;;;;;0.00;0.00;;;25.40;46.70;;;;;;5033215;28;20228;-52
2023/11/04 05:56:11;;;;;;;0.00;0.00;;;25.40;46.80;;;;;;5033471;28;20240;-52
2023/11/04 05:58:41;;;;;;;0.00;0.00;;;25.40;46.70;;;;;;5033239;28;20571;-52
2023/11/04 06:01:12;;;;;;;0.00;0.00;;;25.40;46.40;;;;;;5018593;28;20205;-52
2023/11/04 06:03:43;;;;;;;0.00;0.00;;;25.40;46.50;;;;;;5012255;28;20800;-51
2023/11/04 06:06:19;;;;;;;0.00;0.00;;;25.40;46.60;;;;;;5012990;28;20278;-49
2023/11/04 06:08:51;;;;;;;0.00;0.00;;;25.40;46.50;;;;;;5012898;28;20585;-48
2023/11/04 06:11:22;;;;;;;0.00;0.00;;;25.40;46.40;;;;;;5012791;28;20201;-50
2023/11/04 06:13:54;;;;;;;0.00;0.00;;;25.40;46.40;;;;;;5012683;28;20692;-52
2023/11/04 06:16:26;;;;;;;0.00;0.00;;;25.40;46.30;;;;;;5012674;28;20577;-52
2023/11/04 06:18:56;;;;;;;0.00;0.00;;;25.40;46.40;;;;;;5012827;28;20200;-54
2023/11/04 06:21:28;;;;;;;0.10;0.10;;;25.40;46.40;;;;;;5013136;28;20649;-55
2023/11/04 06:24:00;;;;;;;0.00;0.00;;;25.40;46.40;;;;;;5012370;28;20701;-55
2023/11/04 06:26:31;;;;;;;0.00;0.00;;;25.40;46.40;;;;;;5012746;28;20231;-56
2023/11/04 06:29:02;;;;;;;0.00;0.00;;;25.40;46.60;;;;;;5013112;28;20200;-56
2023/11/04 06:31:32;;;;;;;0.00;0.00;;;25.40;46.50;;;;;;5012247;28;20549;-56
2023/11/04 06:34:03;;;;;;;0.00;0.00;;;25.40;46.60;;;;;;5012924;28;20221;-56
2023/11/04 06:36:35;;;;;;;0.00;0.00;;;25.40;46.60;;;;;;5026448;28;20195;-55
2023/11/04 06:39:08;;;;;;;0.03;0.03;;;25.40;47.30;;;;;;5031891;28;20200;-55
2023/11/04 06:41:40;;;;;;;0.00;0.00;;;25.40;46.60;;;;;;5031842;28;20212;-56
2023/11/04 06:44:10;;;;;;;0.00;0.00;;;25.40;46.60;;;;;;5032074;28;20645;-56
2023/11/04 06:46:41;;;;;;;0.00;0.00;;;25.40;46.50;;;;;;5031518;28;20278;-56
2023/11/04 06:49:12;;;;;;;0.10;0.10;;;25.40;46.60;;;;;;5032012;28;20203;-56
2023/11/04 06:51:42;;;;;;;0.00;0.00;;;25.40;46.40;;;;;;5032117;28;20200;-57
2023/11/04 06:54:15;;;;;;;0.00;0.00;;;25.40;46.30;;;;;;5028255;28;20191;-54
2023/11/04 06:56:46;;;;;;;0.00;0.00;;;25.40;46.10;;;;;;5032080;28;20196;-56
2023/11/04 06:59:17;;;;;;;0.00;0.00;;;25.40;46.00;;;;;;5032117;28;20200;-55
2023/11/04 07:01:52;;;;;;;0.00;0.00;;;25.30;45.70;;;;;;5012254;28;20204;-51
2023/11/04 07:04:23;;;;;;;0.00;0.00;;;25.30;45.60;;;;;;5012169;28;20230;-55
2023/11/04 07:06:56;;;;;;;0.00;0.00;;;25.30;45.50;;;;;;5012261;28;20228;-54
2023/11/04 07:09:29;;;;;;;0.00;0.00;;;25.30;45.50;;;;;;5014045;28;20199;-55
2023/11/04 07:11:59;;;;;;;0.00;0.00;;;25.30;45.40;;;;;;5013044;28;20240;-56
2023/11/04 07:14:31;;;;;;;0.00;0.00;;;25.30;45.30;;;;;;4992299;28;20201;-51
2023/11/04 07:17:01;;;;;;;0.00;0.00;;;25.20;45.30;;;;;;4991748;28;20198;-54
2023/11/04 07:19:32;;;;;;;0.00;0.00;;;25.20;45.40;;;;;;4992301;28;20209;-54
2023/11/04 07:22:03;;;;;;;0.00;0.00;;;25.20;45.50;;;;;;4992217;28;20201;-55
2023/11/04 07:24:35;;;;;;;0.00;0.00;;;25.20;45.50;;;;;;5023401;28;20219;-53
2023/11/04 07:27:06;;;;;;;0.00;0.00;;;25.20;45.50;;;;;;5031670;28;20270;-54
2023/11/04 07:29:37;;;;;;;0.00;0.00;;;25.10;45.50;;;;;;5030289;28;20200;-56
2023/11/04 07:32:08;;;;;;;0.00;0.00;;;25.10;45.50;;;;;;5011783;28;20228;-56
2023/11/04 07:34:39;;;;;;;0.00;0.00;;;25.10;45.50;;;;;;5011745;28;20219;-56
2023/11/04 07:37:09;;;;;;;0.00;0.00;;;25.10;45.50;;;;;;5012008;28;20664;-53
2023/11/04 07:39:43;;;;;;;0.00;0.00;;;25.10;45.50;;;;;;5011838;28;20298;-55
2023/11/04 07:42:13;;;;;;;0.00;0.00;;;25.10;45.40;;;;;;5011929;28;20371;-56
2023/11/04 07:44:44;;;;;;;0.00;0.00;;;25.10;45.40;;;;;;5011886;28;20216;-52
2023/11/04 07:47:15;;;;;;;0.00;0.00;;;25.00;45.20;;;;;;5011285;28;20229;-56
2023/11/04 07:49:45;;;;;;;0.00;0.00;;;25.00;45.20;;;;;;5012057;28;20204;-54
2023/11/04 07:52:16;;;;;;;0.03;0.03;;;25.00;45.20;;;;;;5011036;28;20229;-55
2023/11/04 07:54:49;;;;;;;0.10;0.10;;;24.90;45.10;;;;;;5010031;28;20193;-56
2023/11/04 07:57:19;;;;;;;0.00;0.00;;;24.90;45.10;;;;;;5011269;28;20200;-56
2023/11/04 07:59:50;;;;;;;0.00;0.00;;;24.90;45.10;;;;;;5010853;28;20234;-52
2023/11/04 08:02:20;;;;;;;0.00;0.00;;;24.90;45.10;;;;;;5013073;28;20220;-54
2023/11/04 08:04:51;;;;;;;0.10;0.10;;;24.90;45.20;;;;;;5014527;28;20196;-55
2023/11/04 08:07:22;;;;;;;0.00;0.00;;;24.80;45.20;;;;;;5014298;28;20217;-51
2023/11/04 08:09:55;;;;;;;0.00;0.00;;;24.80;45.30;;;;;;5014550;28;20197;-49
2023/11/04 08:12:26;;;;;;;0.00;0.00;;;24.80;45.20;;;;;;5014818;28;20224;-49
2023/11/04 08:14:56;;;;;;;0.00;0.00;;;24.80;45.30;;;;;;5015066;28;20197;-47
2023/11/04 08:17:27;;;;;;;0.00;0.00;;;24.70;45.30;;;;;;5013535;28;20244;-46
2023/11/04 08:19:58;;;;;;;0.00;0.00;;;24.70;45.30;;;;;;5014678;28;20196;-50
2023/11/04 08:22:29;;;;;;;0.10;0.10;;;24.70;45.30;;;;;;5014075;28;20217;-54
2023/11/04 08:25:01;;;;;;;0.00;0.00;;;24.70;45.30;;;;;;5014401;28;20219;-48
2023/11/04 08:27:32;;;;;;;0.00;0.00;;;24.70;45.40;;;;;;5013886;28;20224;-56
2023/11/04 08:30:03;;;;;;;0.05;0.05;;;24.60;45.30;;;;;;5013982;28;20399;-54
2023/11/04 08:32:34;;;;;;;0.10;0.10;;;24.60;45.30;;;;;;5014307;28;20228;-56
2023/11/04 08:35:05;;;;;;;0.00;0.00;;;24.60;45.30;;;;;;5013701;28;20197;-57
2023/11/04 08:37:36;;;;;;;0.00;0.00;;;24.60;45.30;;;;;;5024054;28;20192;-56
2023/11/04 08:40:09;;;;;;;0.00;0.00;;;24.50;45.30;;;;;;5018859;28;20201;-53
2023/11/04 08:42:40;;;;;;;0.00;0.00;;;24.50;45.30;;;;;;5014251;28;20558;-55
2023/11/04 08:45:13;;;;;;;0.00;0.00;;;24.50;45.30;;;;;;5013179;28;20196;-56
2023/11/04 08:47:44;;;;;;;0.00;0.00;;;24.50;45.90;;;;;;5014334;28;20312;-57
2023/11/04 08:50:15;;;;;;;0.00;0.00;;;24.40;45.30;;;;;;5014033;28;20200;-56
2023/11/04 08:52:46;;;;;;;0.00;0.00;;;24.40;45.40;;;;;;5013933;28;20217;-56
2023/11/04 08:55:18;;;;;;;0.00;0.00;;;24.40;45.40;;;;;;5014360;28;20193;-55
2023/11/04 08:57:49;;;;;;;0.05;0.05;;;24.40;45.40;;;;;;5013867;28;20208;-54
2023/11/04 09:00:20;;;;;;;0.00;0.00;;;24.30;45.40;;;;;;5018527;28;20196;-56
2023/11/04 09:02:51;;;;;;;0.00;0.00;;;24.30;45.50;;;;;;5013251;28;20217;-48
2023/11/04 09:05:22;;;;;;;0.00;0.00;;;24.30;45.50;;;;;;5014916;28;20645;-51
2023/11/04 09:07:53;;;;;;;0.00;0.00;;;24.30;45.50;;;;;;4994194;28;20232;-51
2023/11/04 09:10:25;;;;;;;0.00;0.00;;;24.30;45.50;;;;;;5008092;28;20649;-56
2023/11/04 09:12:56;;;;;;;0.00;0.00;;;24.20;45.50;;;;;;5015253;28;20212;-54
2023/11/04 09:15:27;;;;;;;0.00;0.00;;;24.20;45.60;;;;;;5012841;28;20197;-57
2023/11/04 09:17:58;;;;;;;0.00;0.00;;;24.20;45.50;;;;;;5013581;28;20197;-57
2023/11/04 09:20:29;;;;;;;0.10;0.10;;;24.20;45.50;;;;;;5013858;28;20205;-57
2023/11/04 09:22:59;;;;;;;0.10;0.10;;;24.10;45.50;;;;;;5013785;28;20217;-56
2023/11/04 09:25:32;;;;;;;0.00;0.00;;;24.10;45.50;;;;;;5014356;28;20197;-55
2023/11/04 09:28:03;;;;;;;0.00;0.00;;;24.10;45.50;;;;;;5013771;28;20224;-57
2023/11/04 09:30:34;;;;;;;0.00;0.00;;;24.00;45.50;;;;;;5013665;28;20201;-57
2023/11/04 09:33:04;;;;;;;0.00;0.00;;;24.00;45.50;;;;;;5030687;28;20227;-55
2023/11/04 09:35:35;;;;;;;0.00;0.00;;;24.00;45.50;;;;;;5033169;28;20200;-56
2023/11/04 09:38:06;;;;;;;0.00;0.00;;;24.00;45.60;;;;;;5033735;28;20204;-52
2023/11/04 09:40:39;;;;;;;0.00;0.00;;;23.90;45.60;;;;;;5033618;28;20200;-57
2023/11/04 09:43:11;;;;;;;0.00;0.00;;;23.90;45.60;;;;;;5033184;28;20227;-51
2023/11/04 09:45:42;;;;;;;0.00;0.00;;;23.90;45.60;;;;;;5033034;28;20200;-56
2023/11/04 09:48:13;;;;;;;0.10;0.10;;;23.90;45.70;;;;;;5033101;28;20704;-55
2023/11/04 09:50:43;;;;;;;0.00;0.00;;;23.80;45.60;;;;;;5033269;28;20534;-55
2023/11/04 09:53:21;;;;;;;0.00;0.00;;;23.80;45.70;;;;;;5033525;28;20223;-54
2023/11/04 09:55:54;;;;;;;0.00;0.00;;;23.80;45.70;;;;;;5033333;28;20204;-54
2023/11/04 09:58:25;;;;;;;0.00;0.00;;;23.70;45.60;;;;;;5033119;28;20214;-55
2023/11/04 10:00:56;;;;;;;0.00;0.00;;;23.70;46.20;;;;;;5021052;28;20204;-57
2023/11/04 10:03:27;;;;;;;0.00;0.00;;;23.70;45.60;;;;;;5013262;28;20270;-57
2023/11/04 10:05:58;;;;;;;0.10;0.10;;;23.70;45.60;;;;;;5013209;28;20196;-56
2023/11/04 10:08:28;;;;;;;0.00;0.00;;;23.70;45.60;;;;;;5013290;28;20233;-54
2023/11/04 10:11:01;;;;;;;0.00;0.00;;;23.60;45.60;;;;;;5013079;28;20204;-54
2023/11/04 10:13:32;;;;;;;0.00;0.00;;;23.60;45.60;;;;;;5012856;28;20303;-53
2023/11/04 10:16:03;;;;;;;0.10;0.10;;;23.50;45.60;;;;;;5012971;28;20216;-56
2023/11/04 10:18:34;;;;;;;0.10;0.10;;;23.50;45.60;;;;;;5013082;28;20201;-55
2023/11/04 10:21:06;;;;;;;0.00;0.00;;;23.50;45.70;;;;;;5012925;28;20263;-57
2023/11/04 10:23:36;;;;;;;0.10;0.10;;;23.50;45.70;;;;;;5012300;28;20580;-57
2023/11/04 10:26:09;;;;;;;0.00;0.00;;;23.40;45.70;;;;;;5012864;28;20294;-53
2023/11/04 10:28:40;;;;;;;0.10;0.10;;;23.40;45.70;;;;;;5013011;28;20232;-56
2023/11/04 10:31:12;;;;;;;0.00;0.00;;;23.40;45.70;;;;;;5018135;28;20238;-56
2023/11/04 10:33:45;;;;;;;0.00;0.00;;;23.40;45.70;;;;;;5032979;28;20219;-50
2023/11/04 10:36:17;;;;;;;0.00;0.00;;;23.30;45.70;;;;;;5032293;28;20200;-57
2023/11/04 10:38:57;;;;;;;0.00;0.00;;;23.30;45.70;;;;;;5032500;28;20200;-55
2023/11/04 10:41:43;;;;;;;0.00;0.00;;;23.30;45.70;;;;;;5032749;28;20239;-55
2023/11/04 10:44:17;;;;;;;0.00;0.00;;;23.30;45.70;;;;;;5032277;28;20222;-52
2023/11/04 10:46:56;;;;;;;0.00;0.00;;;23.20;45.70;;;;;;5032248;28;20520;-54
2023/11/04 10:49:32;;;;;;;0.00;0.00;;;23.20;45.80;;;;;;5032539;28;20208;-53
2023/11/04 10:52:08;;;;;;;0.00;0.00;;;23.20;45.80;;;;;;5032127;28;20200;-51
2023/11/04 10:54:46;;;;;;;0.00;0.00;;;23.10;45.80;;;;;;5032357;28;20608;-53
2023/11/04 10:57:26;;;;;;;0.10;0.10;;;23.10;45.80;;;;;;5032336;28;20196;-55
2023/11/04 11:00:10;;;;;;;0.10;0.10;;;23.00;45.80;;;;;;5028252;28;20204;-56
2023/11/04 11:02:43;;;;;;;0.03;0.03;;;23.00;45.80;;;;;;5012420;28;20217;-53
2023/11/04 11:05:14;;;;;;;0.10;0.10;;;23.00;45.80;;;;;;5024432;28;20231;-54
2023/11/04 11:07:45;;;;;;;0.00;0.00;;;23.00;45.90;;;;;;5031831;28;20293;-55
2023/11/04 11:10:17;;;;;;;0.00;0.00;;;22.90;45.90;;;;;;5032095;28;20200;-56
2023/11/04 11:13:08;;;;;;;0.00;0.00;;;22.90;45.90;;;;;;5031453;28;20576;-55
2023/11/04 11:15:39;;;;;;;0.10;0.10;;;22.90;45.90;;;;;;4992061;28;20220;-55
2023/11/04 11:18:11;;;;;;;0.10;0.10;;;22.90;45.90;;;;;;4992252;28;20232;-55
2023/11/04 11:20:42;;;;;;;0.00;0.00;;;22.80;45.90;;;;;;4992260;28;20206;-55
2023/11/04 11:23:13;;;;;;;0.00;0.00;;;22.80;45.90;;;;;;4992448;28;20218;-53
2023/11/04 11:25:44;;;;;;;0.00;0.00;;;22.70;45.80;;;;;;4992428;28;20233;-54
2023/11/04 11:28:26;;;;;;;0.00;0.00;;;22.70;45.90;;;;;;4991962;28;20228;-54
2023/11/04 11:31:00;;;;;;;0.00;0.00;;;22.70;45.90;;;;;;5003711;28;20200;-57
2023/11/04 11:33:31;;;;;;;0.00;0.00;;;22.70;45.90;;;;;;5012038;28;20243;-53
2023/11/04 11:36:05;;;;;;;0.00;0.00;;;22.60;45.90;;;;;;5011056;28;20196;-52
2023/11/04 11:38:36;;;;;;;0.00;0.00;;;22.60;46.00;;;;;;5012340;28;20675;-54
2023/11/04 11:41:08;;;;;;;0.00;0.00;;;22.60;46.00;;;;;;5021167;28;20192;-55
2023/11/04 11:43:40;;;;;;;0.00;0.00;;;22.60;46.10;;;;;;5031381;28;20226;-54
2023/11/04 11:46:11;;;;;;;0.00;0.00;;;22.50;46.10;;;;;;5031426;28;20264;-56
2023/11/04 11:48:44;;;;;;;0.00;0.00;;;22.50;46.10;;;;;;5031462;28;20220;-54
2023/11/04 11:51:15;;;;;;;0.00;0.00;;;22.50;46.50;;;;;;5031411;28;20282;-55
2023/11/04 11:53:47;;;;;;;0.00;0.00;;;22.50;46.10;;;;;;5031330;28;20224;-56
2023/11/04 11:56:18;;;;;;;0.00;0.00;;;22.40;46.10;;;;;;5031526;28;20211;-56
2023/11/04 11:58:50;;;;;;;0.00;0.00;;;22.40;46.10;;;;;;5031647;28;20203;-56
2023/11/04 12:01:21;;;;;;;0.10;0.10;;;22.40;46.20;;;;;;5015725;28;20201;-56
2023/11/04 12:03:52;;;;;;;0.00;0.00;;;22.40;46.20;;;;;;5011679;28;20228;-56
2023/11/04 12:06:23;;;;;;;0.03;0.03;;;22.30;46.10;;;;;;5011812;28;20201;-56
2023/11/04 12:08:55;;;;;;;0.00;0.00;;;22.30;46.10;;;;;;5011339;28;20220;-55
2023/11/04 12:11:27;;;;;;;0.00;0.00;;;22.30;46.20;;;;;;5011173;28;20239;-55
2023/11/04 12:14:01;;;;;;;0.00;0.00;;;22.30;46.20;;;;;;5011273;28;20243;-54
2023/11/04 12:16:33;;;;;;;0.00;0.00;;;22.20;46.20;;;;;;5011334;28;20197;-55
2023/11/04 12:19:03;;;;;;;0.00;0.00;;;22.20;46.20;;;;;;5011443;28;20200;-54
2023/11/04 12:21:35;;;;;;;0.00;0.00;;;22.20;46.20;;;;;;5010750;28;20197;-54
2023/11/04 12:24:05;;;;;;;0.00;0.00;;;22.20;46.20;;;;;;5011323;28;20213;-53
2023/11/04 12:26:36;;;;;;;0.00;0.00;;;22.10;46.20;;;;;;5020423;28;20657;-53
2023/11/04 12:29:09;;;;;;;0.10;0.10;;;22.10;46.30;;;;;;5030778;28;20226;-56
2023/11/04 12:31:41;;;;;;;0.05;0.05;;;22.10;46.30;;;;;;5012280;28;20201;-55
2023/11/04 12:34:12;;;;;;;0.10;0.10;;;22.10;46.40;;;;;;5027462;23;20256;-54
2023/11/04 12:36:43;;;;;;;0.10;0.10;;;22.00;46.30;;;;;;5010929;28;20192;-53
2023/11/04 12:39:13;;;;;;;0.00;0.00;;;22.00;46.30;;;;;;5011023;28;20263;-54
2023/11/04 12:41:45;;;;;;;0.00;0.00;;;22.00;46.30;;;;;;5010872;28;20197;-51
2023/11/04 12:44:19;;;;;;;0.10;0.10;;;22.00;46.30;;;;;;5011253;28;20228;-55
2023/11/04 12:46:53;;;;;;;0.10;0.10;;;21.90;46.30;;;;;;5012164;28;20197;-53
2023/11/04 12:49:23;;;;;;;0.00;0.00;;;21.90;46.30;;;;;;5015100;28;20259;-53
2023/11/04 12:51:54;;;;;;;0.00;0.00;;;21.90;46.30;;;;;;5014830;28;20571;-50
2023/11/04 12:54:25;;;;;;;0.10;0.10;;;21.90;46.40;;;;;;5014998;28;20213;-53
2023/11/04 12:56:55;;;;;;;0.10;0.10;;;21.80;46.40;;;;;;5014004;28;20650;-53
2023/11/04 12:59:28;;;;;;;0.00;0.00;;;21.80;46.40;;;;;;5014089;28;20209;-54
2023/11/04 13:01:58;;;;;;;0.03;0.03;;;21.80;46.50;;;;;;4994542;28;20201;-57
2023/11/04 13:04:29;;;;;;;0.10;0.10;;;21.80;46.40;;;;;;5011252;28;20604;-51
2023/11/04 13:06:59;;;;;;;0.03;0.03;;;21.80;46.50;;;;;;5033458;28;20193;-54
2023/11/04 13:09:31;;;;;;;0.00;0.00;;;21.70;46.50;;;;;;5013606;28;20228;-53